KVSF/VSF METAR and TAF weather

Enter ICAO airport designator
Station Type Date Time Source
KVSF METAR 2019/02/22 21:54 UTC NOAA

KVSF 222154Z AUTO VRB04KT 10SM CLR 02/M07 A3034 RMK AO2 SLP284 T00171072


Station Type Date Time Source
KVSF Decoded METAR 2019/02/22 21:54 UTC NOAA

HARTNESS STATE AIRPORT, VT, United States (KVSF) 43-21N 72-31W 175M
Feb 22, 2019 - 04:54 PM EST / 2019.02.22 2154 UTC
Wind: Variable at 5 MPH (4 KT):0
Visibility: 10 mile(s):0
Sky conditions: clear
Temperature: 35.1 F (1.7 C)
Dew Point: 19.0 F (-7.2 C)
Relative Humidity: 51%
Pressure (altimeter): 30.34 in. Hg (1027 hPa)
ob: KVSF 222154Z AUTO VRB04KT 10SM CLR 02/M07 A3034 RMK AO2 SLP284 T00171072
cycle: 22

Station Type Date Time Source
KVSF TAF UTC NOAA

Error!


Example: see airport list